createdAt,value
2019-05-19T00:00:52.034Z,12.69
2019-05-19T00:03:21.057Z,12.70
2019-05-19T00:05:49.789Z,12.68
2019-05-19T00:08:18.459Z,12.75
2019-05-19T00:10:47.176Z,12.89
2019-05-19T00:13:16.161Z,12.87
2019-05-19T00:15:45.235Z,12.75
2019-05-19T00:18:13.930Z,12.76
2019-05-19T00:20:42.619Z,12.79
2019-05-19T00:23:11.309Z,12.72
2019-05-19T00:25:40.004Z,12.89
2019-05-19T00:28:08.765Z,12.82
2019-05-19T00:30:37.512Z,12.77
2019-05-19T00:33:06.429Z,12.74
2019-05-19T00:35:36.167Z,12.84
2019-05-19T00:38:05.044Z,12.89
2019-05-19T00:40:33.978Z,12.85
2019-05-19T00:43:04.477Z,12.86
2019-05-19T00:45:33.377Z,12.76
2019-05-19T00:48:02.462Z,12.75
2019-05-19T00:50:31.228Z,12.82
2019-05-19T00:53:00.228Z,12.73
2019-05-19T00:55:29.955Z,12.64
2019-05-19T00:57:59.355Z,12.59
2019-05-19T01:00:28.213Z,12.48
2019-05-19T01:02:56.900Z,12.44
2019-05-19T01:05:25.577Z,12.41
2019-05-19T01:07:54.552Z,12.40
2019-05-19T01:10:23.416Z,12.27
2019-05-19T01:12:52.088Z,12.36
2019-05-19T01:15:21.686Z,12.33
2019-05-19T01:17:50.362Z,12.36
2019-05-19T01:20:19.559Z,12.39
2019-05-19T01:22:48.506Z,12.45
2019-05-19T01:25:17.757Z,12.53
2019-05-19T01:27:46.416Z,12.54
2019-05-19T01:30:15.350Z,12.46
2019-05-19T01:32:44.489Z,12.39
2019-05-19T01:35:13.366Z,12.61
2019-05-19T01:37:42.060Z,12.69
2019-05-19T01:40:10.902Z,12.70
2019-05-19T01:42:39.585Z,12.64
2019-05-19T01:45:09.879Z,12.71
2019-05-19T01:47:38.561Z,12.86
2019-05-19T01:50:17.686Z,12.82
2019-05-19T01:52:39.770Z,12.71
2019-05-19T01:55:08.837Z,12.61
2019-05-19T01:57:37.680Z,12.57
2019-05-19T02:00:06.620Z,12.57
2019-05-19T02:02:35.640Z,12.63
2019-05-19T02:05:04.396Z,12.61
2019-05-19T02:07:33.364Z,12.55
2019-05-19T02:10:02.417Z,12.49
2019-05-19T02:12:31.357Z,12.49
2019-05-19T02:15:00.575Z,12.52
2019-05-19T02:17:29.267Z,12.47
2019-05-19T02:19:58.234Z,12.46
2019-05-19T02:22:26.923Z,12.51
2019-05-19T02:24:56.192Z,12.55
2019-05-19T02:27:25.378Z,12.56
2019-05-19T02:29:54.069Z,12.57
2019-05-19T02:32:22.761Z,12.58
2019-05-19T02:34:51.757Z,12.55
2019-05-19T02:37:20.688Z,12.58
2019-05-19T02:39:49.616Z,12.52
2019-05-19T02:42:20.397Z,12.45
2019-05-19T02:44:50.550Z,12.38
2019-05-19T02:47:20.964Z,12.35
2019-05-19T02:49:51.405Z,12.43
2019-05-19T02:52:21.292Z,12.50
2019-05-19T02:54:51.385Z,12.49
2019-05-19T02:57:20.960Z,12.47
2019-05-19T02:59:50.433Z,12.43
2019-05-19T03:02:19.146Z,12.47
2019-05-19T03:04:48.100Z,12.48
2019-05-19T03:07:17.138Z,12.39
2019-05-19T03:09:46.077Z,12.35
2019-05-19T03:12:14.780Z,12.33
2019-05-19T03:14:43.492Z,12.33
2019-05-19T03:17:12.207Z,12.28
2019-05-19T03:19:41.137Z,12.24
2019-05-19T03:22:10.088Z,12.19
2019-05-19T03:24:38.746Z,12.15
2019-05-19T03:27:07.472Z,12.15
2019-05-19T03:29:40.332Z,12.07
2019-05-19T03:32:23.431Z,12.05
2019-05-19T03:34:52.376Z,12.00
2019-05-19T03:37:21.361Z,11.97
2019-05-19T03:39:50.025Z,11.93
2019-05-19T03:42:19.209Z,11.90
2019-05-19T03:44:47.875Z,11.87
2019-05-19T03:47:16.579Z,11.87
2019-05-19T03:49:45.823Z,11.89
2019-05-19T03:52:14.773Z,11.94
2019-05-19T03:54:43.751Z,11.95
2019-05-19T03:57:12.683Z,11.92
2019-05-19T03:59:41.372Z,11.94
2019-05-19T04:02:10.326Z,11.99
2019-05-19T04:04:39.250Z,12.03
2019-05-19T04:07:08.028Z,12.13
2019-05-19T04:09:36.708Z,12.17
2019-05-19T04:12:05.393Z,12.22
2019-05-19T04:14:34.394Z,12.26
2019-05-19T04:17:03.304Z,12.21
2019-05-19T04:19:32.328Z,12.21
2019-05-19T04:22:01.493Z,12.16
2019-05-19T04:24:30.197Z,12.19
2019-05-19T04:26:59.120Z,12.23
2019-05-19T04:29:27.818Z,12.32
2019-05-19T04:31:56.491Z,12.37
2019-05-19T04:34:25.433Z,12.41
2019-05-19T04:36:54.258Z,12.31
2019-05-19T04:39:22.945Z,12.51
2019-05-19T04:41:51.627Z,12.57
2019-05-19T04:44:20.319Z,12.56
2019-05-19T04:46:49.230Z,12.50
2019-05-19T04:49:18.432Z,12.48
2019-05-19T04:52:05.216Z,12.47
2019-05-19T04:54:18.888Z,12.52
2019-05-19T04:56:47.813Z,12.54
2019-05-19T04:59:18.747Z,12.60
2019-05-19T05:01:47.434Z,12.64
2019-05-19T05:04:16.197Z,12.69
2019-05-19T05:06:45.111Z,12.73
2019-05-19T05:09:14.279Z,12.80
2019-05-19T05:11:43.236Z,12.89
2019-05-19T05:14:11.912Z,12.99
2019-05-19T05:16:40.886Z,13.09
2019-05-19T05:19:09.605Z,13.21
2019-05-19T05:21:41.806Z,13.34
2019-05-19T05:24:10.519Z,13.43
2019-05-19T05:26:41.179Z,13.51
2019-05-19T05:29:10.132Z,13.58
2019-05-19T05:31:39.073Z,13.65
2019-05-19T05:34:07.830Z,13.73
2019-05-19T05:36:37.204Z,13.83
2019-05-19T05:39:06.877Z,13.92
2019-05-19T05:41:36.095Z,14.03
2019-05-19T05:44:05.194Z,14.13
2019-05-19T05:46:33.895Z,14.21
2019-05-19T05:49:02.626Z,14.43
2019-05-19T05:51:31.546Z,14.44
2019-05-19T05:54:00.924Z,14.63
2019-05-19T05:56:29.907Z,14.70
2019-05-19T05:58:58.610Z,14.70
2019-05-19T06:01:27.303Z,15.00
2019-05-19T06:03:56.250Z,14.98
2019-05-19T06:06:25.411Z,15.20
2019-05-19T06:08:54.357Z,15.21
2019-05-19T06:11:23.289Z,15.16
2019-05-19T06:13:52.155Z,15.23
2019-05-19T06:16:20.851Z,15.28
2019-05-19T06:18:50.128Z,15.53
2019-05-19T06:21:18.999Z,15.52
2019-05-19T06:23:47.660Z,15.59
2019-05-19T06:26:16.379Z,15.96
2019-05-19T06:28:45.642Z,15.92
2019-05-19T06:31:14.421Z,15.89
2019-05-19T06:33:43.639Z,16.16
2019-05-19T06:36:12.318Z,16.24
2019-05-19T06:38:41.018Z,16.16
2019-05-19T06:41:11.817Z,16.18
2019-05-19T06:43:40.771Z,16.19
2019-05-19T06:46:09.987Z,16.16
2019-05-19T06:48:38.953Z,16.31
2019-05-19T06:51:07.651Z,16.36
2019-05-19T06:53:36.828Z,16.22
2019-05-19T06:56:05.618Z,16.33
2019-05-19T06:58:34.369Z,16.45
2019-05-19T07:01:03.315Z,16.41
2019-05-19T07:03:32.004Z,16.36
2019-05-19T07:06:00.965Z,16.35
2019-05-19T07:08:29.729Z,16.41
2019-05-19T07:10:58.699Z,16.36
2019-05-19T07:13:27.641Z,16.69
2019-05-19T07:15:56.347Z,16.64
2019-05-19T07:18:25.263Z,16.87
2019-05-19T07:20:54.034Z,16.95
2019-05-19T07:23:28.225Z,17.17
2019-05-19T07:25:53.478Z,17.26
2019-05-19T07:28:22.407Z,17.37
2019-05-19T07:30:51.118Z,17.37
2019-05-19T07:33:20.283Z,17.38
2019-05-19T07:35:49.230Z,17.40
2019-05-19T07:38:17.940Z,17.40
2019-05-19T07:40:46.651Z,17.43
2019-05-19T07:43:15.598Z,17.45
2019-05-19T07:45:44.544Z,17.53
2019-05-19T07:48:13.238Z,17.62
2019-05-19T07:50:42.187Z,17.60
2019-05-19T07:53:13.400Z,17.68
2019-05-19T07:55:42.325Z,17.87
2019-05-19T07:58:11.272Z,18.00
2019-05-19T08:00:40.244Z,18.00
2019-05-19T08:03:09.180Z,18.14
2019-05-19T08:05:37.894Z,18.15
2019-05-19T08:08:09.900Z,18.26
2019-05-19T08:10:38.896Z,18.44
2019-05-19T08:13:07.584Z,18.44
2019-05-19T08:15:36.294Z,18.57
2019-05-19T08:18:05.207Z,18.68
2019-05-19T08:20:33.894Z,18.50
2019-05-19T08:23:02.665Z,18.62
2019-05-19T08:25:31.382Z,18.61
2019-05-19T08:28:08.581Z,18.63
2019-05-19T08:30:30.547Z,18.72
2019-05-19T08:32:59.427Z,18.72
2019-05-19T08:35:28.723Z,18.83
2019-05-19T08:37:57.449Z,18.95
2019-05-19T08:40:26.137Z,19.06
2019-05-19T08:42:54.849Z,19.26
2019-05-19T08:45:23.627Z,19.32
2019-05-19T08:47:52.383Z,19.30
2019-05-19T08:50:21.335Z,19.37
2019-05-19T08:52:50.023Z,19.35
2019-05-19T08:55:18.794Z,19.42
2019-05-19T08:57:48.286Z,19.52
2019-05-19T09:00:17.166Z,19.52
2019-05-19T09:02:46.121Z,19.62
2019-05-19T09:05:15.133Z,19.69
2019-05-19T09:07:43.820Z,19.74
2019-05-19T09:10:13.334Z,19.67
2019-05-19T09:12:42.013Z,19.76
2019-05-19T09:15:11.102Z,19.83
2019-05-19T09:17:39.968Z,19.81
2019-05-19T09:20:09.034Z,20.12
2019-05-19T09:22:37.874Z,20.22
2019-05-19T09:25:07.089Z,20.21
2019-05-19T09:27:35.844Z,20.35
2019-05-19T09:30:05.368Z,20.43
2019-05-19T09:32:34.541Z,20.42
2019-05-19T09:35:03.317Z,20.51
2019-05-19T09:37:32.005Z,20.51
2019-05-19T09:40:00.731Z,20.60
2019-05-19T09:42:29.572Z,20.59
2019-05-19T09:44:58.413Z,20.68
2019-05-19T09:47:27.198Z,20.83
2019-05-19T09:49:58.050Z,20.97
2019-05-19T09:52:26.882Z,21.03
2019-05-19T09:54:55.572Z,21.09
2019-05-19T09:57:24.745Z,21.27
2019-05-19T09:59:54.699Z,21.29
2019-05-19T10:02:23.405Z,21.32
2019-05-19T10:04:52.416Z,21.28
2019-05-19T10:07:21.365Z,21.49
2019-05-19T10:10:02.229Z,21.47
2019-05-19T10:12:31.383Z,21.40
2019-05-19T10:15:01.789Z,21.48
2019-05-19T10:17:31.615Z,21.63
2019-05-19T10:20:00.306Z,21.87
2019-05-19T10:22:29.156Z,22.01
2019-05-19T10:25:18.634Z,22.16
2019-05-19T10:27:28.337Z,22.33
2019-05-19T10:29:57.152Z,22.48
2019-05-19T10:32:25.845Z,22.62
2019-05-19T10:34:54.724Z,22.72
2019-05-19T10:37:23.762Z,22.69
2019-05-19T10:39:52.478Z,22.78
2019-05-19T10:42:21.256Z,22.73
2019-05-19T10:44:49.981Z,22.86
2019-05-19T10:47:18.784Z,22.64
2019-05-19T10:49:47.957Z,22.45
2019-05-19T10:52:16.912Z,22.03
2019-05-19T10:54:45.624Z,21.71
2019-05-19T10:57:14.553Z,21.62
2019-05-19T10:59:43.510Z,21.96
2019-05-19T11:02:12.282Z,22.13
2019-05-19T11:04:41.264Z,22.22
2019-05-19T11:07:10.059Z,22.21
2019-05-19T11:09:38.991Z,22.31
2019-05-19T11:12:07.707Z,22.43
2019-05-19T11:14:36.466Z,22.30
2019-05-19T11:17:05.169Z,22.26
2019-05-19T11:19:34.384Z,22.44
2019-05-19T11:22:03.623Z,22.53
2019-05-19T11:24:33.841Z,22.70
2019-05-19T11:27:02.563Z,22.92
2019-05-19T11:29:31.545Z,23.19
2019-05-19T11:32:00.516Z,23.30
2019-05-19T11:34:29.277Z,23.32
2019-05-19T11:36:59.911Z,23.40
2019-05-19T11:39:28.876Z,23.39
2019-05-19T11:41:57.906Z,23.47
2019-05-19T11:44:26.635Z,23.32
2019-05-19T11:46:55.579Z,23.40
2019-05-19T11:49:24.382Z,23.35
2019-05-19T11:51:53.128Z,23.38
2019-05-19T11:54:22.106Z,23.29
2019-05-19T11:56:51.059Z,23.03
2019-05-19T11:59:20.037Z,22.97
2019-05-19T12:01:49.243Z,23.14
2019-05-19T12:04:18.317Z,23.35
2019-05-19T12:06:47.432Z,23.39
2019-05-19T12:09:16.939Z,23.69
2019-05-19T12:11:45.648Z,23.88
2019-05-19T12:14:14.419Z,23.82
2019-05-19T12:16:43.406Z,23.55
2019-05-19T12:19:12.264Z,23.31
2019-05-19T12:21:41.432Z,23.58
2019-05-19T12:24:10.410Z,23.89
2019-05-19T12:26:39.126Z,24.10
2019-05-19T12:29:08.106Z,24.12
2019-05-19T12:31:37.047Z,24.18
2019-05-19T12:34:06.237Z,24.40
2019-05-19T12:36:35.447Z,24.42
2019-05-19T12:39:05.362Z,24.55
2019-05-19T12:41:34.308Z,24.69
2019-05-19T12:44:03.328Z,24.64
2019-05-19T12:46:32.076Z,24.55
2019-05-19T12:49:00.825Z,24.72
2019-05-19T12:51:29.866Z,25.09
2019-05-19T12:53:59.356Z,24.90
2019-05-19T12:56:39.256Z,24.62
2019-05-19T12:58:58.648Z,24.21
2019-05-19T13:01:27.773Z,23.83
2019-05-19T13:03:56.820Z,23.34
2019-05-19T13:06:26.316Z,23.16
2019-05-19T13:08:55.300Z,23.23
2019-05-19T13:11:24.371Z,23.20
2019-05-19T13:13:53.121Z,22.99
2019-05-19T13:16:22.085Z,22.95
2019-05-19T13:18:50.894Z,23.03
2019-05-19T13:21:19.857Z,23.37
2019-05-19T13:23:48.644Z,23.63
2019-05-19T13:26:17.337Z,23.83
2019-05-19T13:28:46.426Z,24.29
2019-05-19T13:31:15.195Z,24.41
2019-05-19T13:33:43.921Z,24.50
2019-05-19T13:36:13.193Z,24.70
2019-05-19T13:38:42.272Z,24.76
2019-05-19T13:41:11.049Z,24.60
2019-05-19T13:43:39.783Z,24.71
2019-05-19T13:46:08.534Z,24.76
2019-05-19T13:48:37.532Z,24.74
2019-05-19T13:51:06.478Z,25.03
2019-05-19T13:53:35.210Z,24.90
2019-05-19T13:56:04.160Z,24.80
2019-05-19T13:58:33.163Z,24.77
2019-05-19T14:01:01.931Z,24.65
2019-05-19T14:03:31.150Z,24.61
2019-05-19T14:05:59.850Z,24.95
2019-05-19T14:08:29.062Z,24.72
2019-05-19T14:10:58.098Z,25.03
2019-05-19T14:13:27.089Z,25.11
2019-05-19T14:15:55.784Z,25.29
2019-05-19T14:18:24.799Z,25.38
2019-05-19T14:20:53.609Z,25.55
2019-05-19T14:23:22.349Z,25.29
2019-05-19T14:25:51.041Z,25.47
2019-05-19T14:28:20.014Z,25.58
2019-05-19T14:30:48.694Z,25.57
2019-05-19T14:33:17.432Z,25.75
2019-05-19T14:35:47.387Z,25.66
2019-05-19T14:38:16.324Z,25.65
2019-05-19T14:40:45.412Z,25.46
2019-05-19T14:43:14.271Z,25.15
2019-05-19T14:45:43.243Z,25.30
2019-05-19T14:48:12.122Z,25.24
2019-05-19T14:50:41.020Z,25.45
2019-05-19T14:53:09.731Z,25.59
2019-05-19T14:55:38.555Z,25.72
2019-05-19T14:58:10.313Z,25.57
2019-05-19T15:00:39.056Z,25.63
2019-05-19T15:03:07.888Z,25.56
2019-05-19T15:05:36.625Z,25.40
2019-05-19T15:08:05.361Z,25.16
2019-05-19T15:10:34.137Z,25.06
2019-05-19T15:13:02.821Z,25.19
2019-05-19T15:15:31.791Z,25.34
2019-05-19T15:18:02.940Z,25.35
2019-05-19T15:20:31.686Z,24.95
2019-05-19T15:23:00.405Z,24.57
2019-05-19T15:25:29.124Z,24.60
2019-05-19T15:28:00.808Z,24.70
2019-05-19T15:30:28.267Z,24.71
2019-05-19T15:32:57.042Z,24.80
2019-05-19T15:35:26.028Z,24.83
2019-05-19T15:37:54.724Z,25.07
2019-05-19T15:40:23.800Z,25.08
2019-05-19T15:42:52.542Z,24.73
2019-05-19T15:45:21.844Z,24.28
2019-05-19T15:47:51.420Z,24.10
2019-05-19T15:50:20.788Z,23.84
2019-05-19T15:52:49.640Z,23.61
2019-05-19T15:55:18.433Z,23.62
2019-05-19T15:57:47.405Z,23.60
2019-05-19T16:00:16.496Z,23.46
2019-05-19T16:02:45.464Z,23.56
2019-05-19T16:05:14.726Z,23.69
2019-05-19T16:07:43.438Z,23.99
2019-05-19T16:10:13.541Z,24.19
2019-05-19T16:12:42.477Z,24.33
2019-05-19T16:15:11.852Z,24.40
2019-05-19T16:17:40.768Z,24.41
2019-05-19T16:20:09.751Z,24.43
2019-05-19T16:22:38.500Z,24.26
2019-05-19T16:25:07.371Z,24.27
2019-05-19T16:27:36.384Z,24.25
2019-05-19T16:30:06.045Z,24.17
2019-05-19T16:32:34.759Z,24.22
2019-05-19T16:35:03.467Z,24.03
2019-05-19T16:37:32.488Z,24.11
2019-05-19T16:40:01.439Z,23.84
2019-05-19T16:42:30.102Z,23.64
2019-05-19T16:44:59.068Z,23.52
2019-05-19T16:47:27.778Z,23.48
2019-05-19T16:49:56.751Z,23.47
2019-05-19T16:52:25.701Z,23.40
2019-05-19T16:55:13.626Z,23.26
2019-05-19T16:57:42.545Z,23.00
2019-05-19T17:00:11.780Z,22.88
2019-05-19T17:02:40.458Z,22.67
2019-05-19T17:05:09.610Z,22.54
2019-05-19T17:07:38.300Z,22.46
2019-05-19T17:10:08.897Z,22.46
2019-05-19T17:12:37.730Z,22.34
2019-05-19T17:15:07.023Z,22.12
2019-05-19T17:17:37.466Z,22.01
2019-05-19T17:20:06.694Z,21.93
2019-05-19T17:22:35.452Z,21.89
2019-05-19T17:25:04.317Z,21.80
2019-05-19T17:27:33.511Z,21.74
2019-05-19T17:30:02.209Z,21.71
2019-05-19T17:32:31.202Z,21.60
2019-05-19T17:35:01.019Z,21.52
2019-05-19T17:37:29.782Z,21.45
2019-05-19T17:39:58.774Z,21.41
2019-05-19T17:42:27.767Z,21.35
2019-05-19T17:44:56.533Z,21.29
2019-05-19T17:47:25.262Z,21.18
2019-05-19T17:49:54.340Z,21.15
2019-05-19T17:52:23.149Z,21.15
2019-05-19T17:54:52.139Z,21.12
2019-05-19T17:57:21.362Z,21.13
2019-05-19T17:59:51.728Z,21.19
2019-05-19T18:02:20.527Z,21.18
2019-05-19T18:04:49.563Z,21.17
2019-05-19T18:07:18.292Z,21.15
2019-05-19T18:09:46.994Z,21.09
2019-05-19T18:12:15.950Z,21.05
2019-05-19T18:14:44.660Z,20.99
2019-05-19T18:17:13.909Z,20.98
2019-05-19T18:19:42.638Z,20.83
2019-05-19T18:22:13.473Z,20.64
2019-05-19T18:24:42.501Z,20.10
2019-05-19T18:27:11.206Z,20.10
2019-05-19T18:29:40.202Z,19.98
2019-05-19T18:32:09.403Z,19.96
2019-05-19T18:34:38.342Z,19.90
2019-05-19T18:37:07.586Z,19.85
2019-05-19T18:39:39.520Z,19.80
2019-05-19T18:42:08.341Z,19.81
2019-05-19T18:44:39.401Z,19.78
2019-05-19T18:47:08.370Z,19.83
2019-05-19T18:49:37.412Z,19.90
2019-05-19T18:52:06.198Z,19.89
2019-05-19T18:54:34.890Z,19.81
2019-05-19T18:57:03.758Z,19.89
2019-05-19T18:59:46.483Z,19.92
2019-05-19T19:02:03.261Z,19.89
2019-05-19T19:04:32.141Z,19.86
2019-05-19T19:07:01.074Z,19.74
2019-05-19T19:09:30.278Z,19.69
2019-05-19T19:11:59.007Z,19.54
2019-05-19T19:14:28.332Z,19.60
2019-05-19T19:16:57.026Z,19.59
2019-05-19T19:19:25.970Z,19.48
2019-05-19T19:21:54.657Z,19.42
2019-05-19T19:24:23.332Z,19.52
2019-05-19T19:26:52.412Z,19.43
2019-05-19T19:29:21.348Z,19.45
2019-05-19T19:31:50.284Z,19.44
2019-05-19T19:34:18.992Z,19.33
2019-05-19T19:36:47.922Z,19.27
2019-05-19T19:39:16.856Z,19.17
2019-05-19T19:41:45.579Z,19.14
2019-05-19T19:44:14.613Z,19.03
2019-05-19T19:46:44.576Z,19.05
2019-05-19T19:49:13.204Z,18.93
2019-05-19T19:51:41.923Z,18.84
2019-05-19T19:54:10.652Z,18.90
2019-05-19T19:56:39.574Z,18.84
2019-05-19T19:59:08.316Z,18.84
2019-05-19T20:01:37.520Z,18.74
2019-05-19T20:04:06.491Z,18.77
2019-05-19T20:06:35.260Z,18.64
2019-05-19T20:09:04.663Z,18.63
2019-05-19T20:11:33.367Z,18.61
2019-05-19T20:14:02.468Z,18.54
2019-05-19T20:16:31.424Z,18.45
2019-05-19T20:19:00.326Z,18.49
2019-05-19T20:21:28.995Z,18.41
2019-05-19T20:23:57.744Z,18.33
2019-05-19T20:26:26.415Z,18.20
2019-05-19T20:28:55.117Z,18.08
2019-05-19T20:31:24.124Z,18.02
2019-05-19T20:33:52.804Z,17.99
2019-05-19T20:36:21.881Z,17.80
2019-05-19T20:38:51.736Z,17.80
2019-05-19T20:41:20.655Z,17.75
2019-05-19T20:43:49.360Z,17.74
2019-05-19T20:46:18.528Z,17.78
2019-05-19T20:48:47.480Z,17.75
2019-05-19T20:51:16.582Z,17.70
2019-05-19T20:53:48.049Z,17.70
2019-05-19T20:56:19.744Z,17.60
2019-05-19T20:58:48.678Z,17.56
2019-05-19T21:01:17.531Z,17.59
2019-05-19T21:03:46.702Z,17.46
2019-05-19T21:06:15.925Z,17.61
2019-05-19T21:08:44.876Z,17.41
2019-05-19T21:11:14.033Z,17.31
2019-05-19T21:13:43.208Z,17.31
2019-05-19T21:16:11.901Z,17.35
2019-05-19T21:18:40.688Z,17.29
2019-05-19T21:21:09.377Z,17.15
2019-05-19T21:23:39.604Z,17.04
2019-05-19T21:26:08.299Z,17.14
2019-05-19T21:28:37.556Z,17.00
2019-05-19T21:31:06.642Z,16.93
2019-05-19T21:33:35.281Z,17.04
2019-05-19T21:36:04.221Z,17.16
2019-05-19T21:38:32.952Z,17.18
2019-05-19T21:41:01.638Z,17.03
2019-05-19T21:43:30.688Z,16.84
2019-05-19T21:45:59.353Z,16.74
2019-05-19T21:48:36.453Z,16.64
2019-05-19T21:51:05.305Z,16.64
2019-05-19T21:53:34.541Z,16.54
2019-05-19T21:56:05.566Z,16.38
2019-05-19T21:58:37.628Z,16.36
2019-05-19T22:01:21.861Z,16.20
2019-05-19T22:03:38.804Z,16.25
2019-05-19T22:06:09.265Z,16.39
2019-05-19T22:08:38.235Z,16.43
2019-05-19T22:11:06.915Z,16.39
2019-05-19T22:13:35.961Z,16.38
2019-05-19T22:16:12.762Z,16.47
2019-05-19T22:18:35.600Z,16.54
2019-05-19T22:21:04.369Z,16.41
2019-05-19T22:23:33.621Z,16.34
2019-05-19T22:26:02.535Z,16.27
2019-05-19T22:28:31.455Z,16.27
2019-05-19T22:31:00.223Z,16.36
2019-05-19T22:33:29.193Z,16.39
2019-05-19T22:35:57.871Z,16.33
2019-05-19T22:38:26.817Z,16.35
2019-05-19T22:40:55.543Z,16.28
2019-05-19T22:43:24.600Z,16.34
2019-05-19T22:45:53.313Z,16.34
2019-05-19T22:48:22.011Z,16.43
2019-05-19T22:50:50.716Z,16.41
2019-05-19T22:53:24.298Z,16.39
2019-05-19T22:55:53.098Z,16.35
2019-05-19T22:58:21.818Z,16.26
2019-05-19T23:00:50.506Z,16.23
2019-05-19T23:03:19.264Z,16.20
2019-05-19T23:05:48.031Z,16.10
2019-05-19T23:08:16.696Z,16.11
2019-05-19T23:10:45.547Z,16.12
2019-05-19T23:13:16.587Z,16.17
2019-05-19T23:15:45.544Z,16.10
2019-05-19T23:18:14.561Z,16.11
2019-05-19T23:20:43.537Z,15.95
2019-05-19T23:23:12.542Z,15.89
2019-05-19T23:25:44.679Z,15.78
2019-05-19T23:28:13.665Z,15.51
2019-05-19T23:30:42.380Z,15.47
2019-05-19T23:33:11.170Z,15.42
2019-05-19T23:35:40.294Z,15.43
2019-05-19T23:38:09.310Z,15.41
2019-05-19T23:40:38.340Z,15.38
2019-05-19T23:43:07.025Z,15.34
2019-05-19T23:45:35.759Z,15.25
2019-05-19T23:48:04.705Z,15.08
2019-05-19T23:50:33.934Z,15.10
2019-05-19T23:53:02.893Z,15.06
2019-05-19T23:55:31.613Z,15.05
2019-05-19T23:58:00.544Z,15.13
